createdAt,value
2018-08-17T00:01:59.840Z,94257.97
2018-08-17T00:04:29.300Z,94261.20
2018-08-17T00:06:59.604Z,94258.00
2018-08-17T00:09:29.115Z,94257.27
2018-08-17T00:11:58.652Z,94256.14
2018-08-17T00:14:28.043Z,94257.69
2018-08-17T00:16:57.468Z,94250.11
2018-08-17T00:19:26.789Z,94253.59
2018-08-17T00:21:56.235Z,94255.72
2018-08-17T00:24:25.735Z,94261.46
2018-08-17T00:26:55.318Z,94253.97
2018-08-17T00:29:24.746Z,94255.58
2018-08-17T00:31:54.241Z,94257.33
2018-08-17T00:34:24.329Z,94260.78
2018-08-17T00:36:53.638Z,94243.98
2018-08-17T00:39:23.077Z,94250.66
2018-08-17T00:41:52.423Z,94240.09
2018-08-17T00:44:21.606Z,94249.25
2018-08-17T00:46:50.703Z,94243.20
2018-08-17T00:49:20.091Z,94250.72
2018-08-17T00:51:49.171Z,94250.48
2018-08-17T00:54:18.444Z,94252.39
2018-08-17T00:56:47.741Z,94245.09
2018-08-17T00:59:17.305Z,94252.66
2018-08-17T01:01:46.420Z,94241.84
2018-08-17T01:04:15.750Z,94237.69
2018-08-17T01:06:45.114Z,94237.52
2018-08-17T01:09:14.362Z,94242.13
2018-08-17T01:11:43.858Z,94247.98
2018-08-17T01:14:13.141Z,94245.17
2018-08-17T01:16:42.723Z,94243.31
2018-08-17T01:19:11.998Z,94239.39
2018-08-17T01:21:41.336Z,94239.70
2018-08-17T01:24:10.725Z,94236.65
2018-08-17T01:26:40.359Z,94237.91
2018-08-17T01:29:09.605Z,94243.99
2018-08-17T01:31:38.945Z,94237.89
2018-08-17T01:34:08.188Z,94240.95
2018-08-17T01:36:37.537Z,94239.13
2018-08-17T01:39:08.726Z,94244.55
2018-08-17T01:41:38.078Z,94241.19
2018-08-17T01:44:07.501Z,94240.73
2018-08-17T01:46:36.867Z,94235.97
2018-08-17T01:49:06.328Z,94238.87
2018-08-17T01:51:35.522Z,94232.61
2018-08-17T01:54:05.277Z,94236.11
2018-08-17T01:56:34.287Z,94232.52
2018-08-17T01:59:03.315Z,94228.59
2018-08-17T02:01:32.339Z,94237.33
2018-08-17T02:04:01.411Z,94233.97
2018-08-17T02:06:30.428Z,94234.44
2018-08-17T02:08:59.421Z,94230.09
2018-08-17T02:11:28.442Z,94224.03
2018-08-17T02:13:57.418Z,94228.23
2018-08-17T02:16:27.343Z,94228.36
2018-08-17T02:18:56.389Z,94226.03
2018-08-17T02:21:25.456Z,94224.68
2018-08-17T02:23:54.573Z,94226.31
2018-08-17T02:26:23.672Z,94216.43
2018-08-17T02:28:52.734Z,94218.85
2018-08-17T02:31:21.716Z,94219.17
2018-08-17T02:33:50.734Z,94219.51
2018-08-17T02:36:19.761Z,94213.44
2018-08-17T02:38:48.751Z,94221.61
2018-08-17T02:41:17.791Z,94218.14
2018-08-17T02:43:46.835Z,94215.77
2018-08-17T02:46:16.079Z,94216.38
2018-08-17T02:48:45.133Z,94208.77
2018-08-17T02:51:14.168Z,94207.23
2018-08-17T02:53:43.165Z,94208.98
2018-08-17T02:56:12.214Z,94214.16
2018-08-17T02:58:41.177Z,94208.33
2018-08-17T03:01:10.303Z,94206.64
2018-08-17T03:03:39.359Z,94211.22
2018-08-17T03:06:08.658Z,94213.17
2018-08-17T03:08:37.755Z,94212.23
2018-08-17T03:11:06.715Z,94206.50
2018-08-17T03:13:35.888Z,94211.47
2018-08-17T03:16:04.981Z,94209.98
2018-08-17T03:18:33.989Z,94217.16
2018-08-17T03:21:03.038Z,94220.19
2018-08-17T03:23:32.243Z,94216.17
2018-08-17T03:26:01.250Z,94222.33
2018-08-17T03:28:30.359Z,94221.54
2018-08-17T03:30:59.342Z,94221.34
2018-08-17T03:33:28.397Z,94218.31
2018-08-17T03:35:57.524Z,94224.66
2018-08-17T03:38:26.733Z,94225.24
2018-08-17T03:40:55.834Z,94230.00
2018-08-17T03:43:24.836Z,94230.85
2018-08-17T03:45:53.970Z,94231.92
2018-08-17T03:48:23.523Z,94230.84
2018-08-17T03:50:52.994Z,94237.44
2018-08-17T03:53:22.502Z,94231.70
2018-08-17T03:55:51.884Z,94237.95
2018-08-17T03:58:21.312Z,94240.02
2018-08-17T04:00:50.732Z,94236.70
2018-08-17T04:03:20.060Z,94245.08
2018-08-17T04:05:50.600Z,94239.87
2018-08-17T04:08:20.194Z,94247.92
2018-08-17T04:10:49.606Z,94247.52
2018-08-17T04:13:19.100Z,94246.48
2018-08-17T04:15:48.281Z,94243.88
2018-08-17T04:18:17.656Z,94249.72
2018-08-17T04:20:47.464Z,94244.60
2018-08-17T04:23:17.229Z,94247.20
2018-08-17T04:25:46.536Z,94249.67
2018-08-17T04:28:15.740Z,94249.16
2018-08-17T04:30:44.969Z,94255.17
2018-08-17T04:33:14.445Z,94256.36
2018-08-17T04:35:43.701Z,94252.95
2018-08-17T04:38:13.019Z,94254.20
2018-08-17T04:40:42.545Z,94254.71
2018-08-17T04:43:11.869Z,94261.72
2018-08-17T04:45:41.373Z,94267.02
2018-08-17T04:48:11.647Z,94271.20
2018-08-17T04:50:40.911Z,94263.16
2018-08-17T04:53:10.301Z,94259.88
2018-08-17T04:55:39.945Z,94260.91
2018-08-17T04:58:09.031Z,94256.20
2018-08-17T05:00:40.247Z,94255.81
2018-08-17T05:03:09.932Z,94253.59
2018-08-17T05:05:39.096Z,94255.34
2018-08-17T05:08:08.432Z,94259.22
2018-08-17T05:10:37.770Z,94259.58
2018-08-17T05:13:07.313Z,94257.82
2018-08-17T05:15:36.636Z,94261.06
2018-08-17T05:18:06.367Z,94259.72
2018-08-17T05:20:35.405Z,94260.94
2018-08-17T05:23:04.645Z,94257.28
2018-08-17T05:25:33.702Z,94263.60
2018-08-17T05:28:02.890Z,94269.11
2018-08-17T05:30:33.039Z,94267.30
2018-08-17T05:33:02.073Z,94271.25
2018-08-17T05:35:31.068Z,94269.78
2018-08-17T05:38:00.401Z,94271.11
2018-08-17T05:40:29.516Z,94269.67
2018-08-17T05:42:58.537Z,94268.52
2018-08-17T05:45:27.605Z,94264.80
2018-08-17T05:47:56.628Z,94261.73
2018-08-17T05:50:25.684Z,94256.79
2018-08-17T05:52:55.495Z,94258.34
2018-08-17T05:55:24.775Z,94257.56
2018-08-17T05:57:54.166Z,94255.11
2018-08-17T06:00:23.546Z,94261.05
2018-08-17T06:02:53.003Z,94262.63
2018-08-17T06:05:22.211Z,94264.23
2018-08-17T06:07:51.275Z,94258.57
2018-08-17T06:10:21.114Z,94266.48
2018-08-17T06:12:50.210Z,94260.67
2018-08-17T06:15:19.384Z,94259.95
2018-08-17T06:17:49.373Z,94262.31
2018-08-17T06:20:18.736Z,94257.76
2018-08-17T06:22:48.755Z,94256.24
2018-08-17T06:25:18.427Z,94249.45
2018-08-17T06:27:47.649Z,94246.92
2018-08-17T06:30:17.176Z,94253.23
2018-08-17T06:32:47.063Z,94247.15
2018-08-17T06:35:16.437Z,94238.98
2018-08-17T06:37:45.874Z,94248.23
2018-08-17T06:40:16.639Z,94249.03
2018-08-17T06:42:47.136Z,94243.73
2018-08-17T06:45:16.817Z,94246.13
2018-08-17T06:47:46.233Z,94243.51
2018-08-17T06:50:15.680Z,94236.67
2018-08-17T06:52:45.337Z,94235.57
2018-08-17T06:55:15.033Z,94233.46
2018-08-17T06:57:44.963Z,94235.30
2018-08-17T07:00:16.283Z,94236.34
2018-08-17T07:02:46.660Z,94235.23
2018-08-17T07:05:16.235Z,94234.84
2018-08-17T07:07:46.444Z,94235.16
2018-08-17T07:10:16.656Z,94234.50
2018-08-17T07:12:45.901Z,94235.02
2018-08-17T07:15:15.269Z,94230.08
2018-08-17T07:17:44.424Z,94232.69
2018-08-17T07:20:14.332Z,94229.67
2018-08-17T07:22:44.488Z,94227.55
2018-08-17T07:25:13.842Z,94229.78
2018-08-17T07:27:43.900Z,94231.02
2018-08-17T07:30:13.236Z,94217.16
2018-08-17T07:32:42.797Z,94223.16
2018-08-17T07:35:12.338Z,94218.41
2018-08-17T07:37:41.937Z,94212.20
2018-08-17T07:40:11.452Z,94218.57
2018-08-17T07:42:40.938Z,94223.39
2018-08-17T07:45:10.517Z,94210.34
2018-08-17T07:47:39.873Z,94210.13
2018-08-17T07:50:09.284Z,94211.98
2018-08-17T07:52:38.808Z,94203.89
2018-08-17T07:55:08.171Z,94204.63
2018-08-17T07:57:37.595Z,94203.27
2018-08-17T08:00:07.208Z,94205.69
2018-08-17T08:02:37.241Z,94201.07
2018-08-17T08:05:08.717Z,94201.67
2018-08-17T08:07:38.232Z,94194.09
2018-08-17T08:10:07.843Z,94196.35
2018-08-17T08:12:37.235Z,94191.73
2018-08-17T08:15:07.910Z,94197.28
2018-08-17T08:17:38.452Z,94188.46
2018-08-17T08:20:18.678Z,94190.28
2018-08-17T08:22:48.199Z,94184.45
2018-08-17T08:25:17.511Z,94187.56
2018-08-17T08:27:46.873Z,94187.39
2018-08-17T08:30:16.332Z,94186.74
2018-08-17T08:32:45.764Z,94186.61
2018-08-17T08:35:15.362Z,94189.13
2018-08-17T08:37:44.752Z,94188.44
2018-08-17T08:40:14.138Z,94183.34
2018-08-17T08:42:43.429Z,94186.63
2018-08-17T08:45:13.557Z,94187.45
2018-08-17T08:47:43.001Z,94184.98
2018-08-17T08:50:12.387Z,94178.52
2018-08-17T08:52:41.976Z,94176.66
2018-08-17T08:55:11.428Z,94171.03
2018-08-17T08:57:40.821Z,94173.77
2018-08-17T09:00:11.197Z,94166.27
2018-08-17T09:02:40.538Z,94164.68
2018-08-17T09:05:10.577Z,94163.33
2018-08-17T09:07:40.077Z,94167.88
2018-08-17T09:10:10.409Z,94164.81
2018-08-17T09:12:40.152Z,94165.24
2018-08-17T09:15:11.355Z,94161.30
2018-08-17T09:17:41.847Z,94153.15
2018-08-17T09:20:13.277Z,94164.81
2018-08-17T09:22:42.826Z,94154.13
2018-08-17T09:25:12.460Z,94155.22
2018-08-17T09:27:42.299Z,94155.97
2018-08-17T09:30:13.098Z,94139.37
2018-08-17T09:32:42.593Z,94135.59
2018-08-17T09:35:13.316Z,94132.98
2018-08-17T09:37:42.526Z,94132.55
2018-08-17T09:40:12.642Z,94130.73
2018-08-17T09:42:41.892Z,94125.55
2018-08-17T09:45:12.800Z,94123.67
2018-08-17T09:47:42.077Z,94124.55
2018-08-17T09:50:14.703Z,94125.41
2018-08-17T09:52:44.417Z,94119.97
2018-08-17T09:57:50.833Z,94117.79
2018-08-17T10:00:20.049Z,94118.47
2018-08-17T10:02:54.253Z,94116.55
2018-08-17T10:05:28.332Z,94113.48
2018-08-17T10:08:02.484Z,94113.94
2018-08-17T10:10:31.763Z,94115.23
2018-08-17T10:13:00.909Z,94104.71
2018-08-17T10:15:29.982Z,94106.42
2018-08-17T10:17:59.001Z,94103.68
2018-08-17T10:20:28.218Z,94104.88
2018-08-17T10:22:57.250Z,94100.48
2018-08-17T10:25:27.438Z,94094.84
2018-08-17T10:27:57.853Z,94099.94
2018-08-17T10:30:27.540Z,94096.84
2018-08-17T10:32:59.573Z,94100.88
2018-08-17T10:35:36.485Z,94102.92
2018-08-17T10:38:07.174Z,94100.14
2018-08-17T10:40:36.588Z,94096.22
2018-08-17T10:43:07.040Z,94095.05
2018-08-17T10:45:36.652Z,94093.14
2018-08-17T10:48:05.919Z,94094.67
2018-08-17T10:50:35.683Z,94091.23
2018-08-17T10:53:05.487Z,94102.37
2018-08-17T10:55:40.463Z,94096.02
2018-08-17T10:58:11.128Z,94087.67
2018-08-17T11:00:40.330Z,94084.30
2018-08-17T11:03:09.579Z,94085.55
2018-08-17T11:05:38.874Z,94086.10
2018-08-17T11:08:08.777Z,94088.78
2018-08-17T11:10:38.717Z,94080.76
2018-08-17T11:13:08.231Z,94075.74
2018-08-17T11:15:37.392Z,94077.39
2018-08-17T11:18:06.545Z,94070.94
2018-08-17T11:20:35.709Z,94065.60
2018-08-17T11:23:05.686Z,94070.48
2018-08-17T11:25:34.704Z,94067.14
2018-08-17T11:28:03.785Z,94067.04
2018-08-17T11:30:32.776Z,94059.55
2018-08-17T11:33:01.969Z,94057.98
2018-08-17T11:35:31.570Z,94060.19
2018-08-17T11:38:00.584Z,94067.80
2018-08-17T11:40:29.644Z,94062.03
2018-08-17T11:42:58.661Z,94057.83
2018-08-17T11:45:28.254Z,94053.37
2018-08-17T11:47:59.312Z,94053.40
2018-08-17T11:50:28.545Z,94056.78
2018-08-17T11:52:59.687Z,94054.38
2018-08-17T11:55:30.881Z,94045.97
2018-08-17T11:58:00.262Z,94056.55
2018-08-17T12:00:33.963Z,94055.74
2018-08-17T12:03:03.378Z,94057.54
2018-08-17T12:05:32.647Z,94057.80
2018-08-17T12:08:02.186Z,94053.74
2018-08-17T12:10:32.206Z,94055.89
2018-08-17T12:13:07.375Z,94052.96
2018-08-17T12:15:44.974Z,94047.54
2018-08-17T12:18:14.680Z,94041.77
2018-08-17T12:20:43.990Z,94043.72
2018-08-17T12:23:13.311Z,94037.56
2018-08-17T12:25:47.801Z,94042.12
2018-08-17T12:28:17.384Z,94033.95
2018-08-17T12:30:46.655Z,94037.39
2018-08-17T12:33:16.285Z,94040.34
2018-08-17T12:35:45.606Z,94033.97
2018-08-17T12:38:15.956Z,94036.41
2018-08-17T12:40:46.191Z,94035.34
2018-08-17T12:43:17.171Z,94033.34
2018-08-17T12:45:46.486Z,94036.19
2018-08-17T12:48:16.651Z,94036.80
2018-08-17T12:50:46.401Z,94028.00
2018-08-17T12:53:16.470Z,94028.92
2018-08-17T12:55:45.866Z,94024.72
2018-08-17T12:58:15.729Z,94023.20
2018-08-17T13:00:44.985Z,94021.23
2018-08-17T13:03:14.555Z,94027.83
2018-08-17T13:05:43.913Z,94029.27
2018-08-17T13:08:13.344Z,94035.20
2018-08-17T13:10:42.615Z,94033.73
2018-08-17T13:13:12.026Z,94031.73
2018-08-17T13:16:14.803Z,94027.43
2018-08-17T13:18:44.684Z,94034.44
2018-08-17T13:21:14.194Z,94032.63
2018-08-17T13:23:43.681Z,94036.42
2018-08-17T13:26:12.908Z,94039.08
2018-08-17T13:28:42.470Z,94038.13
2018-08-17T13:31:11.707Z,94030.73
2018-08-17T13:33:41.105Z,94030.05
2018-08-17T13:36:10.478Z,94026.09
2018-08-17T13:38:39.840Z,94021.94
2018-08-17T13:41:09.270Z,94024.80
2018-08-17T13:43:38.807Z,94022.59
2018-08-17T13:46:08.651Z,94023.38
2018-08-17T13:48:38.027Z,94029.91
2018-08-17T13:51:07.884Z,94024.08
2018-08-17T13:53:37.514Z,94022.02
2018-08-17T13:56:06.929Z,94020.50
2018-08-17T13:58:36.338Z,94026.25
2018-08-17T14:01:05.679Z,94021.51
2018-08-17T14:03:35.823Z,94025.98
2018-08-17T14:06:05.382Z,94017.56
2018-08-17T14:08:34.960Z,94020.91
2018-08-17T14:11:04.867Z,94017.75
2018-08-17T14:13:34.254Z,94017.88
2018-08-17T14:16:03.685Z,94018.27
2018-08-17T14:18:33.061Z,94013.08
2018-08-17T14:21:02.585Z,94013.53
2018-08-17T14:23:32.042Z,94016.66
2018-08-17T14:26:01.444Z,94012.09
2018-08-17T14:28:31.114Z,94011.98
2018-08-17T14:31:00.466Z,94006.84
2018-08-17T14:33:29.877Z,94007.95
2018-08-17T14:35:59.385Z,93998.66
2018-08-17T14:38:31.249Z,94003.61
2018-08-17T14:41:00.950Z,94002.37
2018-08-17T14:43:29.990Z,93998.05
2018-08-17T14:45:59.094Z,94001.85
2018-08-17T14:48:28.203Z,93998.51
2018-08-17T14:50:57.915Z,94001.28
2018-08-17T14:53:27.384Z,94007.27
2018-08-17T14:55:57.531Z,94002.19
2018-08-17T14:58:26.540Z,94007.10
2018-08-17T15:00:55.757Z,94014.48
2018-08-17T15:03:24.812Z,94012.50
2018-08-17T15:05:54.358Z,94008.23
2018-08-17T15:08:23.733Z,94013.52
2018-08-17T15:10:53.180Z,94009.21
2018-08-17T15:13:22.323Z,94010.53
2018-08-17T15:15:51.452Z,94011.87
2018-08-17T15:18:20.765Z,94015.23
2018-08-17T15:20:50.011Z,94012.08
2018-08-17T15:23:19.305Z,94014.16
2018-08-17T15:25:48.574Z,94010.98
2018-08-17T15:28:17.845Z,94018.02
2018-08-17T15:30:46.930Z,94020.78
2018-08-17T15:33:15.967Z,94028.27
2018-08-17T15:35:45.865Z,94027.73
2018-08-17T15:38:14.958Z,94021.94
2018-08-17T15:40:44.346Z,94022.06
2018-08-17T15:43:17.584Z,94027.13
2018-08-17T15:45:49.154Z,94028.44
2018-08-17T15:48:18.689Z,94024.02
2018-08-17T15:50:47.741Z,94023.11
2018-08-17T15:53:17.010Z,94023.92
2018-08-17T15:55:46.051Z,94020.69
2018-08-17T15:58:15.098Z,94026.12
2018-08-17T16:00:44.127Z,94020.09
2018-08-17T16:03:13.270Z,94023.31
2018-08-17T16:05:42.330Z,94015.81
2018-08-17T16:08:11.500Z,94018.14
2018-08-17T16:10:40.776Z,94020.73
2018-08-17T16:13:09.887Z,94019.74
2018-08-17T16:15:38.936Z,94019.40
2018-08-17T16:18:08.065Z,94018.02
2018-08-17T16:20:37.180Z,94014.89
2018-08-17T16:23:06.309Z,94027.11
2018-08-17T16:25:35.341Z,94015.30
2018-08-17T16:28:04.486Z,94016.16
2018-08-17T16:30:33.667Z,94012.34
2018-08-17T16:33:02.824Z,94021.17
2018-08-17T16:35:31.925Z,94020.64
2018-08-17T16:38:00.980Z,94023.52
2018-08-17T16:40:32.478Z,94027.44
2018-08-17T16:43:01.579Z,94026.94
2018-08-17T16:45:30.675Z,94025.86
2018-08-17T16:47:59.759Z,94019.56
2018-08-17T16:50:29.013Z,94021.20
2018-08-17T16:52:58.339Z,94028.23
2018-08-17T16:55:27.494Z,94031.37
2018-08-17T16:57:57.304Z,94035.84
2018-08-17T17:00:26.486Z,94037.41
2018-08-17T17:02:55.477Z,94035.09
2018-08-17T17:05:24.569Z,94036.91
2018-08-17T17:07:53.584Z,94044.67
2018-08-17T17:10:24.569Z,94046.14
2018-08-17T17:12:53.645Z,94048.53
2018-08-17T17:15:22.763Z,94051.80
2018-08-17T17:17:57.873Z,94060.27
2018-08-17T17:20:32.753Z,94061.69
2018-08-17T17:23:01.854Z,94069.61
2018-08-17T17:25:31.192Z,94070.98
2018-08-17T17:28:00.290Z,94072.22
2018-08-17T17:30:54.204Z,94072.64
2018-08-17T17:33:24.631Z,94075.48
2018-08-17T17:35:54.919Z,94081.59
2018-08-17T17:38:24.701Z,94084.02
2018-08-17T17:40:54.812Z,94084.84
2018-08-17T17:43:24.035Z,94084.59
2018-08-17T17:45:53.511Z,94093.69
2018-08-17T17:48:22.885Z,94098.80
2018-08-17T17:50:52.369Z,94098.95
2018-08-17T17:53:22.826Z,94105.20
2018-08-17T17:55:51.979Z,94102.88
2018-08-17T17:58:22.194Z,94108.48
2018-08-17T18:00:58.692Z,94113.41
2018-08-17T18:03:31.375Z,94117.09
2018-08-17T18:06:02.928Z,94119.16
2018-08-17T18:08:32.198Z,94125.80
2018-08-17T18:11:01.839Z,94130.35
2018-08-17T18:13:31.355Z,94129.77
2018-08-17T18:16:01.634Z,94137.02
2018-08-17T18:18:30.892Z,94150.09
2018-08-17T18:21:02.386Z,94150.66
2018-08-17T18:23:32.638Z,94149.63
2018-08-17T18:26:02.044Z,94148.80
2018-08-17T18:28:44.961Z,94158.79
2018-08-17T18:31:14.310Z,94157.89
2018-08-17T18:33:43.655Z,94161.20
2018-08-17T18:36:18.525Z,94165.13
2018-08-17T18:38:48.551Z,94167.48
2018-08-17T18:41:18.476Z,94173.32
2018-08-17T18:43:47.742Z,94178.86
2018-08-17T18:46:17.272Z,94177.09
2018-08-17T18:48:46.438Z,94179.16
2018-08-17T18:51:15.817Z,94177.45
2018-08-17T18:53:45.208Z,94177.04
2018-08-17T18:56:14.760Z,94183.25
2018-08-17T18:58:44.007Z,94182.17
2018-08-17T19:01:14.072Z,94184.53
2018-08-17T19:03:43.727Z,94191.95
2018-08-17T19:06:13.253Z,94201.86
2018-08-17T19:08:42.385Z,94204.61
2018-08-17T19:11:12.545Z,94200.92
2018-08-17T19:13:42.313Z,94207.42
2018-08-17T19:16:12.926Z,94207.00
2018-08-17T19:18:42.796Z,94210.09
2018-08-17T19:21:14.095Z,94218.09
2018-08-17T19:23:44.374Z,94218.89
2018-08-17T19:26:14.841Z,94222.42
2018-08-17T19:28:45.640Z,94223.23
2018-08-17T19:31:14.791Z,94229.41
2018-08-17T19:33:43.903Z,94231.06
2018-08-17T19:36:12.989Z,94231.94
2018-08-17T19:38:43.227Z,94232.75
2018-08-17T19:41:12.664Z,94239.98
2018-08-17T19:43:41.991Z,94238.89
2018-08-17T19:46:11.292Z,94243.92
2018-08-17T19:48:40.400Z,94239.55
2018-08-17T19:51:14.686Z,94250.84
2018-08-17T19:53:44.134Z,94250.84
2018-08-17T19:56:13.747Z,94253.01
2018-08-17T19:58:43.094Z,94255.77
2018-08-17T20:01:13.180Z,94264.38
2018-08-17T20:03:42.791Z,94267.52
2018-08-17T20:06:11.820Z,94270.30
2018-08-17T20:08:41.067Z,94270.13
2018-08-17T20:11:10.207Z,94267.75
2018-08-17T20:13:39.377Z,94264.62
2018-08-17T20:19:15.136Z,94263.36
2018-08-17T20:21:44.194Z,94263.92
2018-08-17T20:24:13.603Z,94266.60
2018-08-17T20:26:43.052Z,94272.36
2018-08-17T20:29:12.123Z,94276.56
2018-08-17T20:31:43.541Z,94279.53
2018-08-17T20:34:12.729Z,94288.31
2018-08-17T20:36:42.615Z,94285.68
2018-08-17T20:39:13.359Z,94284.35
2018-08-17T20:41:42.643Z,94280.70
2018-08-17T20:44:12.533Z,94287.59
2018-08-17T20:46:41.563Z,94284.43
2018-08-17T20:49:10.621Z,94284.17
2018-08-17T20:51:45.634Z,94289.44
2018-08-17T20:54:14.680Z,94295.55
2018-08-17T20:56:43.988Z,94291.30
2018-08-17T20:59:13.422Z,94294.98
2018-08-17T21:01:42.657Z,94297.13
2018-08-17T21:04:12.365Z,94300.02
2018-08-17T21:06:41.483Z,94301.08
2018-08-17T21:09:10.655Z,94307.43
2018-08-17T21:11:39.766Z,94305.59
2018-08-17T21:14:09.033Z,94305.33
2018-08-17T21:16:38.123Z,94306.91
2018-08-17T21:19:08.433Z,94314.27
2018-08-17T21:21:37.681Z,94316.36
2018-08-17T21:24:06.721Z,94317.95
2018-08-17T21:26:35.778Z,94320.05
2018-08-17T21:29:05.351Z,94320.33
2018-08-17T21:31:35.192Z,94321.37
2018-08-17T21:34:04.235Z,94321.11
2018-08-17T21:36:33.253Z,94332.44
2018-08-17T21:39:14.913Z,94329.26
2018-08-17T21:41:45.449Z,94329.25
2018-08-17T21:44:18.530Z,94332.41
2018-08-17T21:46:55.603Z,94335.05
2018-08-17T21:49:26.107Z,94328.18
2018-08-17T21:51:57.278Z,94325.83
2018-08-17T21:54:26.737Z,94325.82
2018-08-17T21:56:55.748Z,94335.28
2018-08-17T21:59:25.911Z,94331.88
2018-08-17T22:01:55.035Z,94332.39
2018-08-17T22:04:24.476Z,94332.91
2018-08-17T22:06:53.488Z,94333.73
2018-08-17T22:09:33.635Z,94338.69
2018-08-17T22:12:02.765Z,94350.78
2018-08-17T22:14:31.800Z,94348.41
2018-08-17T22:17:00.887Z,94344.89
2018-08-17T22:19:42.930Z,94351.53
2018-08-17T22:22:13.232Z,94351.75
2018-08-17T22:24:47.673Z,94351.25
2018-08-17T22:27:18.065Z,94347.30
2018-08-17T22:29:48.923Z,94348.05
2018-08-17T22:32:18.471Z,94357.70
2018-08-17T22:34:47.996Z,94359.31
2018-08-17T22:37:17.295Z,94363.72
2018-08-17T22:39:47.068Z,94359.95
2018-08-17T22:42:22.144Z,94359.50
2018-08-17T22:44:53.234Z,94318.05
2018-08-17T22:47:29.227Z,94368.66
2018-08-17T22:50:01.811Z,94373.67
2018-08-17T22:52:36.773Z,94373.33
2018-08-17T22:55:09.552Z,94379.30
2018-08-17T22:57:38.880Z,94379.56
2018-08-17T23:00:28.955Z,94385.05
2018-08-17T23:02:59.701Z,94386.34
2018-08-17T23:05:34.485Z,94382.67
2018-08-17T23:08:03.476Z,94384.28
2018-08-17T23:10:32.789Z,94389.42
2018-08-17T23:13:02.196Z,94399.35
2018-08-17T23:15:31.763Z,94401.47
2018-08-17T23:18:01.763Z,94400.64
2018-08-17T23:20:36.025Z,94399.81
2018-08-17T23:23:06.176Z,94403.56
2018-08-17T23:25:35.556Z,94401.26
2018-08-17T23:28:04.989Z,94405.72
2018-08-17T23:30:34.052Z,94400.70
2018-08-17T23:33:03.094Z,94396.76
2018-08-17T23:35:32.137Z,94401.98
2018-08-17T23:38:01.093Z,94404.39
2018-08-17T23:40:30.146Z,94406.27
2018-08-17T23:42:59.132Z,94408.35
2018-08-17T23:45:28.181Z,94413.10
2018-08-17T23:47:57.562Z,94419.09
2018-08-17T23:50:26.671Z,94420.41
2018-08-17T23:52:55.740Z,94415.69
2018-08-17T23:55:24.743Z,94407.80
2018-08-17T23:57:53.731Z,94412.54
